METAR Reports From Nearby Airports

 

KLUD - Decatur, Texas, USA
Distance from Wildwood: ESE 5mi, 8km
Updated: Jun 26, 2017 8:35am
Overcast
Overcast
 Wind from E
Wind: E 3 mph , 6 km/h
Temperature: 72°F , 22°C
Dew Point: 66°F , 19°C
Humidity: 83%
Barometer: 30.19 inHg , 1022.4 hPa
Clouds: Overcast
Visibility: 10 miles , 16 km
Cloud details: Partly Cloudy 1800 ft
Partly Cloudy 3400 ft
Overcast 4800 ft
2017/06/26 13:35 KLUD 261335Z AUTO 08003KT 10SM SCT018 SCT034 OVC048 22/19 A3019 RMK AO2 T02230190
KXBP - Bridgeport, Texas, USA
Distance from Wildwood: WSW 11mi, 18km
Updated: Jun 26, 2017 8:35am
Overcast
Overcast
 Wind from calm
Wind: Calm
Temperature: 72°F , 22°C
Dew Point: 68°F , 20°C
Humidity: 88%
Barometer: 30.20 inHg , 1022.7 hPa
Clouds: Overcast
Visibility: 10 miles , 16 km
Cloud details: Overcast 1500 ft
2017/06/26 13:35 KXBP 261335Z AUTO 00000KT 10SM OVC015 22/20 A3020 RMK AO2 T02200196
 
K0F2 - Bowie, Texas, USA
Distance from Wildwood: NNW 24mi, 39km
Updated: Jun 26, 2017 8:35am
Partly Cloudy
Partly Cloudy
 Wind from calm
Wind: Calm
Temperature: 72°F , 22°C
Dew Point: 68°F , 20°C
Humidity: 88%
Barometer: 30.19 inHg , 1022.4 hPa
Clouds: Partly Cloudy
Visibility: 10 miles , 16 km
Cloud details: Partly Cloudy 12000 ft
2017/06/26 13:35 K0F2 261335Z AUTO 00000KT 10SM SCT120 22/20 A3019 RMK AO2 T02210195
KDTO - Denton, Texas, USA
Distance from Wildwood: E 27mi, 44km
Updated: Jun 26, 2017 8:39am
Mostly Cloudy
Mostly Cloudy
 Wind from ESE
Wind: ESE 7 mph , 11 km/h
Temperature: 75°F , 24°C
Dew Point: 66°F , 19°C
Humidity: 74%
Barometer: 30.18 inHg , 1022 hPa
Clouds: Mostly Cloudy
Visibility: 10 miles , 16 km
Cloud details: Mostly Cloudy 2900 ft
2017/06/26 13:39 KDTO 261339Z 12006KT 10SM BKN029 24/19 A3018 RMK AO2 T02390189 $
 
KAFW - Ft Worth/Allianc, Texas, USA
Distance from Wildwood: SE 29mi, 46km
Updated: Jun 26, 2017 7:53am
Mostly Cloudy
Mostly Cloudy
 Wind from ESE
Wind: ESE 6 mph , 9 km/h
Temperature: 73°F , 23°C
Dew Point: 66°F , 19°C
Humidity: 78%
Barometer: 30.16 inHg , 1021.3 hPa
Clouds: Mostly Cloudy
Visibility: 10 miles , 16 km
Cloud details: Few Clouds 2000 ft
Mostly Cloudy 3500 ft
Mostly Cloudy 5000 ft
Mostly Cloudy 25000 ft
2017/06/26 12:53 KAFW 261253Z 12005KT 10SM FEW020 BKN035 BKN050 BKN250 23/19 A3016 RMK AO2 SLP198 T02330194
KFTW - Fort Worth, Texas, USA
Distance from Wildwood: SSE 34mi, 55km
Updated: Jun 26, 2017 8:33am
Overcast
Overcast
 Wind from ESE
Wind: ESE 6 mph , 9 km/h
Temperature: 75°F , 24°C
Dew Point: 70°F , 21°C
Humidity: 83%
Barometer: 30.16 inHg , 1021.3 hPa
Clouds: Overcast
Visibility: 10 miles , 16 km
Cloud details: Mostly Cloudy 1600 ft
Mostly Cloudy 3000 ft
Overcast 4900 ft
2017/06/26 13:33 KFTW 261333Z 11005KT 10SM BKN016 BKN030 OVC049 24/21 A3016 RMK AO2 T02440206
 
KNFW - Fort Worth Nas, Texas, USA
Distance from Wildwood: SSE 36mi, 58km
Updated: Jun 26, 2017 7:52am
Mostly Cloudy
Mostly Cloudy
 Wind from SE
Wind: SE 6 mph , 9 km/h
Temperature: 75°F , 24°C
Dew Point: 68°F , 20°C
Humidity: 78%
Barometer: 30.16 inHg , 1021.3 hPa
Clouds: Mostly Cloudy
Visibility: 10 miles , 16 km
Cloud details: Partly Cloudy 5000 ft
Mostly Cloudy 10000 ft
Mostly Cloudy 25000 ft
2017/06/26 12:52 KNFW 261252Z 14005KT 10SM SCT050 BKN100 BKN250 24/20 A3016 RMK AO2 SLP194 T02440200 VISNO N $
KGLE - Gainesville, Texas, USA
Distance from Wildwood: NE 38mi, 61km
Updated: Jun 26, 2017 8:35am
Clear
Clear
 Wind from SE
Wind: SE 5 mph , 7 km/h
Temperature: 72°F , 22°C
Dew Point: 64°F , 18°C
Humidity: 78%
Barometer: 30.20 inHg , 1022.7 hPa
Clouds: Clear
Visibility: 10 miles , 16 km
2017/06/26 13:35 KGLE 261335Z AUTO 13004KT 10SM CLR 22/18 A3020 RMK AO2 T02180175
 
KMWL - Mineral Wells, Texas, USA
Distance from Wildwood: SW 41mi, 65km
Updated: Jun 26, 2017 8:38am
Overcast
Overcast
 Wind from ESE
Wind: ESE 7 mph , 11 km/h
Temperature: 73°F , 23°C
Dew Point: 70°F , 21°C
Humidity: 89%
Barometer: 30.16 inHg , 1021.3 hPa
Clouds: Overcast
Visibility: 10 miles , 16 km
Cloud details: Few Clouds 800 ft
Mostly Cloudy 3900 ft
Overcast 7000 ft
2017/06/26 13:38 KMWL 261338Z AUTO 12006KT 10SM FEW008 BKN039 OVC070 23/21 A3016 RMK AO2 T02330206
KDFW - Dallas/Ft Worth, Texas, USA
Distance from Wildwood: ESE 45mi, 73km
Updated: Jun 26, 2017 8:05am
Overcast
Overcast
 Wind from ESE
Wind: ESE 7 mph , 11 km/h
Temperature: 75°F , 24°C
Dew Point: 66°F , 19°C
Humidity: 74%
Barometer: 30.15 inHg , 1021 hPa
Clouds: Overcast
Visibility: 10 miles , 16 km
Cloud details: Mostly Cloudy 1800 ft
Mostly Cloudy 3200 ft
Overcast 30000 ft
2017/06/26 13:05 KDFW 261305Z 11006KT 10SM BKN018 BKN032 OVC300 24/19 A3015 RMK AO2 T02390189